createdAt,value
2023-02-18T00:01:58.019Z,17.30
2023-02-18T00:04:26.578Z,15.40
2023-02-18T00:06:55.408Z,15.50
2023-02-18T00:09:24.121Z,16.00
2023-02-18T00:11:54.388Z,15.70
2023-02-18T00:14:24.409Z,17.50
2023-02-18T00:16:53.505Z,16.00
2023-02-18T00:19:22.390Z,15.10
2023-02-18T00:21:51.010Z,17.10
2023-02-18T00:24:19.565Z,16.30
2023-02-18T00:26:53.675Z,15.10
2023-02-18T00:29:22.662Z,17.10
2023-02-18T00:31:51.291Z,13.70
2023-02-18T00:34:20.160Z,15.50
2023-02-18T00:36:48.824Z,15.50
2023-02-18T00:39:17.513Z,14.50
2023-02-18T00:41:46.192Z,13.80
2023-02-18T00:44:17.441Z,13.90
2023-02-18T00:46:48.466Z,15.00
2023-02-18T00:49:17.781Z,14.30
2023-02-18T00:51:46.571Z,15.00
2023-02-18T00:54:15.283Z,14.80
2023-02-18T00:56:44.250Z,13.40
2023-02-18T00:59:12.945Z,15.90
2023-02-18T01:01:41.646Z,12.80
2023-02-18T01:04:10.249Z,15.10
2023-02-18T01:06:39.554Z,13.00
2023-02-18T01:09:08.438Z,12.20
2023-02-18T01:11:37.301Z,12.40
2023-02-18T01:14:06.191Z,14.90
2023-02-18T01:16:35.007Z,13.10
2023-02-18T01:19:03.735Z,14.30
2023-02-18T01:21:32.436Z,12.70
2023-02-18T01:24:01.484Z,13.10
2023-02-18T01:26:30.224Z,13.30
2023-02-18T01:28:58.801Z,13.00
2023-02-18T01:31:27.392Z,13.40
2023-02-18T01:33:56.129Z,13.40
2023-02-18T01:36:24.704Z,12.90
2023-02-18T01:38:57.795Z,13.20
2023-02-18T01:41:26.634Z,10.70
2023-02-18T01:44:23.996Z,11.30
2023-02-18T01:46:53.227Z,11.70
2023-02-18T01:49:33.293Z,14.20
2023-02-18T01:52:12.365Z,13.50
2023-02-18T01:54:46.227Z,13.30
2023-02-18T01:57:23.316Z,14.40
2023-02-18T02:00:07.743Z,14.20
2023-02-18T02:02:47.792Z,14.20
2023-02-18T02:05:17.514Z,14.70
2023-02-18T02:10:17.235Z,13.40
2023-02-18T02:13:24.001Z,14.60
2023-02-18T02:16:21.774Z,12.00
2023-02-18T02:19:37.768Z,14.30
2023-02-18T02:22:39.255Z,15.20
2023-02-18T02:25:13.905Z,15.00
2023-02-18T02:28:15.170Z,15.20
2023-02-18T02:31:21.316Z,14.20
2023-02-18T02:34:55.119Z,15.00
2023-02-18T02:38:07.725Z,14.50
2023-02-18T02:41:02.688Z,13.40
2023-02-18T02:43:50.125Z,15.00
2023-02-18T02:46:44.593Z,13.80
2023-02-18T02:49:38.458Z,14.40
2023-02-18T02:52:15.669Z,15.10
2023-02-18T02:54:44.305Z,14.60
2023-02-18T02:57:18.752Z,14.10
2023-02-18T03:00:05.128Z,14.30
2023-02-18T03:03:03.711Z,13.70
2023-02-18T03:06:23.750Z,13.90
2023-02-18T03:08:57.896Z,14.90
2023-02-18T03:11:31.800Z,14.90
2023-02-18T03:14:15.679Z,15.70
2023-02-18T03:17:00.146Z,14.80
2023-02-18T03:19:47.596Z,16.10
2023-02-18T03:22:33.317Z,15.40
2023-02-18T03:25:04.122Z,15.10
2023-02-18T03:28:00.130Z,15.80
2023-02-18T03:30:51.125Z,15.40
2023-02-18T03:33:29.226Z,13.40
2023-02-18T03:35:58.128Z,14.00
2023-02-18T03:38:49.641Z,12.20
2023-02-18T03:41:18.327Z,16.30
2023-02-18T03:43:52.746Z,15.10
2023-02-18T03:46:22.684Z,15.10
2023-02-18T03:48:51.676Z,14.80
2023-02-18T03:51:27.264Z,15.40
2023-02-18T03:53:55.990Z,14.20
2023-02-18T03:56:24.878Z,12.70
2023-02-18T03:58:53.485Z,12.40
2023-02-18T04:01:22.212Z,12.30
2023-02-18T04:03:50.882Z,11.80
2023-02-18T04:06:19.614Z,10.50
2023-02-18T04:08:48.301Z,10.80
2023-02-18T04:11:17.598Z,10.50
2023-02-18T04:16:16.053Z,11.30
2023-02-18T04:18:44.800Z,11.90
2023-02-18T04:21:13.573Z,10.40
2023-02-18T04:23:42.458Z,10.80
2023-02-18T04:26:11.365Z,11.00
2023-02-18T04:28:40.461Z,11.30
2023-02-18T04:31:09.205Z,11.40
2023-02-18T04:33:38.349Z,11.50
2023-02-18T04:36:08.000Z,12.50
2023-02-18T04:38:36.902Z,11.10
2023-02-18T04:41:05.717Z,10.40
2023-02-18T04:43:35.539Z,12.70
2023-02-18T04:46:04.676Z,13.70
2023-02-18T04:48:35.508Z,10.30
2023-02-18T04:51:04.964Z,10.60
2023-02-18T04:53:33.898Z,9.70
2023-02-18T04:56:02.796Z,9.90
2023-02-18T04:58:31.534Z,12.70
2023-02-18T05:01:02.514Z,12.60
2023-02-18T05:03:31.545Z,13.10
2023-02-18T05:06:00.254Z,12.30
2023-02-18T05:08:29.046Z,11.80
2023-02-18T05:10:57.675Z,12.70
2023-02-18T05:13:26.217Z,11.50
2023-02-18T05:15:55.045Z,11.70
2023-02-18T05:18:23.776Z,11.90
2023-02-18T05:20:52.286Z,14.10
2023-02-18T05:23:21.605Z,10.60
2023-02-18T05:25:50.356Z,10.10
2023-02-18T05:28:18.875Z,9.20
2023-02-18T05:30:47.573Z,10.10
2023-02-18T05:33:16.217Z,8.90
2023-02-18T05:35:45.004Z,9.10
2023-02-18T05:38:13.785Z,10.60
2023-02-18T05:40:42.477Z,10.50
2023-02-18T05:43:11.103Z,9.30
2023-02-18T05:45:39.873Z,9.60
2023-02-18T05:48:08.427Z,11.20
2023-02-18T05:50:37.212Z,10.50
2023-02-18T05:53:05.953Z,8.40
2023-02-18T05:55:39.359Z,9.00
2023-02-18T05:58:08.511Z,8.10
2023-02-18T06:00:37.089Z,8.70
2023-02-18T06:03:05.868Z,7.50
2023-02-18T06:05:34.466Z,5.90
2023-02-18T06:08:03.033Z,7.00
2023-02-18T06:10:31.612Z,7.20
2023-02-18T06:15:31.542Z,6.70
2023-02-18T06:18:00.155Z,6.80
2023-02-18T06:20:28.761Z,6.40
2023-02-18T06:22:57.422Z,6.80
2023-02-18T06:25:26.387Z,6.20
2023-02-18T06:27:54.908Z,6.50
2023-02-18T06:30:24.590Z,7.50
2023-02-18T06:32:53.386Z,6.70
2023-02-18T06:35:21.973Z,8.40
2023-02-18T06:37:50.529Z,6.40
2023-02-18T06:40:19.929Z,6.30
2023-02-18T06:42:48.614Z,6.10
2023-02-18T06:45:17.411Z,5.60
2023-02-18T06:47:46.190Z,5.30
2023-02-18T06:50:15.555Z,6.80
2023-02-18T06:52:44.133Z,6.00
2023-02-18T06:55:13.036Z,6.30
2023-02-18T06:57:41.615Z,5.70
2023-02-18T07:00:10.775Z,5.10
2023-02-18T07:02:39.330Z,7.10
2023-02-18T07:05:08.025Z,6.10
2023-02-18T07:07:36.723Z,7.30
2023-02-18T07:10:07.522Z,6.30
2023-02-18T07:12:36.375Z,6.00
2023-02-18T07:15:05.465Z,5.70
2023-02-18T07:17:34.018Z,5.40
2023-02-18T07:20:04.737Z,4.20
2023-02-18T07:22:33.500Z,4.70
2023-02-18T07:25:02.056Z,5.40
2023-02-18T07:27:30.757Z,5.30
2023-02-18T07:29:59.313Z,5.60
2023-02-18T07:32:28.049Z,5.10
2023-02-18T07:34:56.767Z,5.80
2023-02-18T07:37:25.420Z,6.70
2023-02-18T07:39:54.066Z,5.50
2023-02-18T07:42:22.629Z,4.70
2023-02-18T07:44:51.696Z,5.00
2023-02-18T07:47:21.644Z,5.90
2023-02-18T07:49:50.393Z,5.40
2023-02-18T07:52:19.004Z,5.60
2023-02-18T07:54:47.742Z,5.50
2023-02-18T07:57:16.295Z,5.30
2023-02-18T07:59:45.036Z,5.80
2023-02-18T08:02:20.321Z,7.00
2023-02-18T08:04:49.364Z,5.80
2023-02-18T08:07:21.109Z,6.20
2023-02-18T08:09:51.039Z,6.00
2023-02-18T08:12:20.557Z,6.20
2023-02-18T08:14:49.190Z,6.20
2023-02-18T08:17:18.471Z,6.10
2023-02-18T08:19:47.065Z,5.30
2023-02-18T08:22:15.634Z,5.10
2023-02-18T08:24:44.138Z,5.30
2023-02-18T08:27:13.701Z,5.30
2023-02-18T08:32:10.723Z,6.10
2023-02-18T08:34:39.790Z,5.00
2023-02-18T08:37:08.441Z,5.10
2023-02-18T08:39:39.936Z,5.30
2023-02-18T08:42:08.661Z,5.80
2023-02-18T08:44:37.379Z,4.50
2023-02-18T08:48:16.597Z,5.20
2023-02-18T08:49:55.307Z,4.80
2023-02-18T08:52:24.423Z,5.00
2023-02-18T08:54:53.232Z,4.20
2023-02-18T08:57:21.843Z,4.10
2023-02-18T08:59:50.699Z,4.30
2023-02-18T09:02:19.354Z,4.10
2023-02-18T09:04:49.453Z,3.30
2023-02-18T09:07:18.972Z,4.40
2023-02-18T09:09:48.314Z,4.30
2023-02-18T09:12:17.087Z,3.50
2023-02-18T09:14:48.620Z,4.70
2023-02-18T09:17:17.217Z,4.80
2023-02-18T09:19:45.945Z,4.20
2023-02-18T09:22:14.969Z,4.60
2023-02-18T09:24:43.782Z,4.80
2023-02-18T09:27:12.691Z,5.00
2023-02-18T09:29:42.329Z,4.30
2023-02-18T09:32:17.803Z,5.00
2023-02-18T09:34:48.814Z,4.80
2023-02-18T09:37:17.484Z,4.80
2023-02-18T09:39:46.094Z,4.40
2023-02-18T09:42:19.136Z,4.20
2023-02-18T09:45:02.176Z,4.10
2023-02-18T09:47:40.464Z,3.20
2023-02-18T09:50:35.950Z,3.70
2023-02-18T09:53:04.865Z,2.80
2023-02-18T09:55:39.106Z,2.70
2023-02-18T09:58:15.791Z,4.60
2023-02-18T10:01:00.110Z,3.20
2023-02-18T10:03:30.142Z,2.80
2023-02-18T10:06:03.479Z,2.80
2023-02-18T10:08:40.638Z,2.40
2023-02-18T10:11:38.465Z,2.90
2023-02-18T10:14:12.673Z,2.60
2023-02-18T10:16:43.376Z,2.30
2023-02-18T10:19:34.949Z,2.90
2023-02-18T10:22:09.024Z,3.10
2023-02-18T10:24:51.543Z,3.50
2023-02-18T10:27:27.400Z,2.50
2023-02-18T10:30:25.137Z,2.80
2023-02-18T10:33:27.538Z,3.60
2023-02-18T10:36:18.065Z,3.10
2023-02-18T10:39:05.110Z,2.10
2023-02-18T10:42:05.949Z,2.80
2023-02-18T10:44:46.337Z,2.80
2023-02-18T10:47:33.672Z,2.90
2023-02-18T10:50:35.604Z,3.20
2023-02-18T10:53:22.580Z,3.30
2023-02-18T10:55:51.323Z,3.70
2023-02-18T10:58:47.080Z,3.60
2023-02-18T11:01:25.186Z,2.50
2023-02-18T11:04:18.221Z,4.10
2023-02-18T11:06:51.750Z,4.40
2023-02-18T11:09:43.979Z,3.20
2023-02-18T11:12:58.888Z,2.60
2023-02-18T11:15:28.921Z,4.10
2023-02-18T11:18:43.367Z,2.40
2023-02-18T11:21:32.583Z,2.20
2023-02-18T11:24:16.972Z,3.10
2023-02-18T11:26:45.613Z,2.50
2023-02-18T11:29:23.360Z,2.90
2023-02-18T11:31:56.115Z,2.60
2023-02-18T11:34:30.005Z,3.40
2023-02-18T11:37:19.720Z,3.30
2023-02-18T11:39:54.749Z,3.70
2023-02-18T11:42:26.933Z,3.60
2023-02-18T11:45:00.577Z,3.70
2023-02-18T11:47:36.811Z,3.40
2023-02-18T11:50:11.104Z,3.10
2023-02-18T11:52:45.494Z,4.90
2023-02-18T11:55:27.779Z,3.70
2023-02-18T11:57:59.592Z,3.50
2023-02-18T12:00:49.566Z,3.30
2023-02-18T12:04:02.830Z,2.30
2023-02-18T12:06:42.006Z,2.90
2023-02-18T12:09:22.439Z,2.40
2023-02-18T12:12:00.972Z,4.00
2023-02-18T12:14:30.132Z,2.60
2023-02-18T12:17:17.385Z,3.30
2023-02-18T12:20:37.268Z,2.80
2023-02-18T12:23:41.691Z,3.70
2023-02-18T12:26:28.609Z,3.10
2023-02-18T12:29:18.894Z,3.90
2023-02-18T12:32:16.993Z,3.00
2023-02-18T12:35:10.704Z,3.90
2023-02-18T12:37:57.164Z,3.40
2023-02-18T12:41:06.928Z,2.30
2023-02-18T12:44:15.581Z,3.10
2023-02-18T12:47:27.980Z,3.10
2023-02-18T12:49:59.200Z,3.90
2023-02-18T12:53:21.968Z,1.60
2023-02-18T12:56:00.426Z,2.40
2023-02-18T12:59:02.610Z,2.80
2023-02-18T13:02:13.915Z,2.30
2023-02-18T13:05:07.515Z,2.40
2023-02-18T13:08:07.820Z,2.40
2023-02-18T13:11:23.993Z,1.90
2023-02-18T13:14:16.845Z,4.00
2023-02-18T13:16:51.867Z,1.70
2023-02-18T13:19:32.373Z,2.10
2023-02-18T13:22:06.876Z,2.40
2023-02-18T13:24:40.157Z,1.30
2023-02-18T13:27:46.168Z,2.00
2023-02-18T13:30:59.025Z,1.90
2023-02-18T13:34:13.103Z,1.80
2023-02-18T13:36:59.574Z,1.90
2023-02-18T13:39:29.307Z,1.80
2023-02-18T13:42:30.160Z,1.40
2023-02-18T13:44:58.728Z,1.70
2023-02-18T13:47:38.844Z,1.70
2023-02-18T13:50:22.575Z,3.20
2023-02-18T13:53:09.626Z,2.30
2023-02-18T13:56:03.206Z,2.20
2023-02-18T13:59:01.171Z,3.00
2023-02-18T14:01:52.351Z,2.30
2023-02-18T14:04:43.868Z,2.80
2023-02-18T14:07:36.003Z,2.30
2023-02-18T14:10:26.545Z,3.40
2023-02-18T14:12:58.150Z,2.70
2023-02-18T14:15:26.762Z,4.00
2023-02-18T14:18:24.194Z,3.10
2023-02-18T14:21:20.133Z,3.30
2023-02-18T14:24:02.051Z,2.80
2023-02-18T14:26:33.897Z,3.30
2023-02-18T14:29:11.124Z,3.10
2023-02-18T14:31:54.670Z,4.40
2023-02-18T14:34:57.170Z,2.40
2023-02-18T14:37:41.650Z,4.70
2023-02-18T14:40:47.322Z,4.10
2023-02-18T14:43:34.078Z,3.80
2023-02-18T14:46:29.711Z,3.70
2023-02-18T14:49:13.762Z,3.60
2023-02-18T14:51:45.365Z,3.10
2023-02-18T14:54:21.091Z,2.80
2023-02-18T14:57:07.400Z,3.30
2023-02-18T14:59:41.288Z,3.90
2023-02-18T15:02:27.644Z,3.00
2023-02-18T15:05:11.758Z,3.00
2023-02-18T15:07:40.359Z,3.50
2023-02-18T15:10:16.207Z,3.30
2023-02-18T15:12:44.890Z,3.20
2023-02-18T15:15:16.589Z,3.60
2023-02-18T15:17:48.657Z,3.00
2023-02-18T15:20:17.925Z,4.00
2023-02-18T15:22:46.993Z,2.90
2023-02-18T15:25:16.522Z,3.60
2023-02-18T15:30:31.638Z,3.70
2023-02-18T15:33:01.808Z,3.60
2023-02-18T15:35:33.516Z,3.40
2023-02-18T15:38:02.530Z,3.80
2023-02-18T15:40:37.613Z,2.70
2023-02-18T15:43:07.860Z,3.90
2023-02-18T15:45:44.075Z,3.30
2023-02-18T15:48:40.960Z,4.50
2023-02-18T15:51:19.393Z,4.40
2023-02-18T15:53:51.837Z,3.70
2023-02-18T15:56:41.945Z,4.50
2023-02-18T15:59:33.769Z,3.70
2023-02-18T16:02:08.524Z,4.60
2023-02-18T16:04:46.128Z,5.10
2023-02-18T16:07:20.974Z,4.90
2023-02-18T16:09:50.068Z,6.00
2023-02-18T16:12:32.884Z,8.00
2023-02-18T16:15:01.633Z,8.90
2023-02-18T16:17:30.700Z,9.40
2023-02-18T16:20:22.905Z,7.50
2023-02-18T16:22:54.927Z,7.30
2023-02-18T16:25:39.754Z,6.40
2023-02-18T16:28:22.650Z,7.20
2023-02-18T16:30:51.541Z,5.40
2023-02-18T16:33:20.141Z,5.60
2023-02-18T16:35:50.908Z,5.90
2023-02-18T16:38:24.469Z,6.40
2023-02-18T16:40:55.024Z,6.60
2023-02-18T16:43:29.101Z,8.20
2023-02-18T16:46:00.093Z,7.40
2023-02-18T16:48:41.596Z,5.70
2023-02-18T16:51:17.121Z,7.60
2023-02-18T16:53:46.033Z,7.80
2023-02-18T16:56:21.477Z,6.00
2023-02-18T16:58:51.318Z,6.60
2023-02-18T17:01:41.515Z,6.00
2023-02-18T17:04:16.816Z,6.60
2023-02-18T17:06:45.988Z,6.90
2023-02-18T17:09:23.482Z,6.30
2023-02-18T17:11:55.274Z,6.50
2023-02-18T17:14:24.007Z,6.60
2023-02-18T17:16:55.031Z,5.20
2023-02-18T17:19:23.622Z,7.40
2023-02-18T17:21:52.282Z,6.40
2023-02-18T17:24:21.132Z,5.70
2023-02-18T17:26:49.686Z,6.60
2023-02-18T17:29:19.841Z,6.30
2023-02-18T17:31:54.444Z,6.70
2023-02-18T17:34:28.020Z,7.20
2023-02-18T17:36:57.158Z,10.40
2023-02-18T17:39:25.823Z,9.10
2023-02-18T17:41:54.577Z,9.40
2023-02-18T17:44:24.986Z,8.40
2023-02-18T17:46:55.075Z,6.60
2023-02-18T17:49:23.948Z,7.50
2023-02-18T17:51:53.009Z,6.10
2023-02-18T17:54:23.161Z,5.60
2023-02-18T17:56:51.778Z,7.40
2023-02-18T17:59:20.351Z,5.80
2023-02-18T18:01:48.922Z,6.50
2023-02-18T18:04:19.684Z,5.00
2023-02-18T18:06:50.069Z,5.60
2023-02-18T18:09:18.651Z,5.50
2023-02-18T18:11:47.301Z,6.00
2023-02-18T18:14:16.037Z,5.70
2023-02-18T18:16:44.576Z,4.80
2023-02-18T18:19:13.117Z,5.00
2023-02-18T18:21:42.109Z,6.70
2023-02-18T18:24:12.864Z,6.30
2023-02-18T18:26:41.383Z,7.10
2023-02-18T18:29:10.053Z,7.50
2023-02-18T18:31:38.737Z,6.60
2023-02-18T18:34:07.420Z,12.10
2023-02-18T18:36:36.109Z,11.00
2023-02-18T18:39:04.726Z,9.40
2023-02-18T18:41:33.277Z,9.80
2023-02-18T18:44:04.172Z,9.80
2023-02-18T18:46:32.882Z,11.20
2023-02-18T18:49:01.657Z,10.60
2023-02-18T18:51:32.957Z,9.80
2023-02-18T18:54:01.530Z,9.50
2023-02-18T18:56:30.207Z,9.30
2023-02-18T18:58:59.197Z,10.20
2023-02-18T19:01:29.481Z,10.00
2023-02-18T19:03:58.578Z,10.60
2023-02-18T19:06:27.227Z,8.10
2023-02-18T19:08:56.536Z,8.10
2023-02-18T19:11:25.097Z,7.90
2023-02-18T19:13:53.671Z,9.10
2023-02-18T19:16:42.961Z,8.60
2023-02-18T19:19:12.106Z,9.50
2023-02-18T19:21:42.292Z,9.80
2023-02-18T19:24:11.047Z,11.40
2023-02-18T19:26:40.130Z,11.80
2023-02-18T19:29:09.733Z,8.60
2023-02-18T19:31:38.430Z,9.50
2023-02-18T19:34:07.203Z,12.90
2023-02-18T19:36:35.816Z,10.40
2023-02-18T19:39:04.531Z,9.80
2023-02-18T19:41:33.266Z,11.20
2023-02-18T19:44:02.163Z,9.10
2023-02-18T19:46:32.646Z,8.40
2023-02-18T19:49:01.224Z,8.70
2023-02-18T19:51:29.880Z,9.20
2023-02-18T19:53:58.644Z,8.40
2023-02-18T19:56:27.235Z,9.40
2023-02-18T19:58:56.859Z,10.00
2023-02-18T20:03:54.081Z,9.60
2023-02-18T20:06:22.792Z,8.10
2023-02-18T20:08:52.481Z,8.90
2023-02-18T20:11:23.444Z,7.40
2023-02-18T20:13:52.125Z,9.70
2023-02-18T20:16:20.701Z,8.30
2023-02-18T20:18:49.606Z,7.70
2023-02-18T20:21:18.586Z,7.90
2023-02-18T20:23:47.274Z,7.50
2023-02-18T20:26:16.174Z,7.90
2023-02-18T20:28:44.715Z,7.50
2023-02-18T20:31:14.556Z,7.30
2023-02-18T20:33:44.416Z,7.70
2023-02-18T20:38:42.787Z,8.00
2023-02-18T20:41:17.712Z,7.70
2023-02-18T20:43:47.236Z,7.80
2023-02-18T20:46:23.413Z,7.40
2023-02-18T20:48:52.256Z,8.50
2023-02-18T20:51:22.587Z,7.80
2023-02-18T20:53:51.569Z,7.10
2023-02-18T20:56:22.343Z,8.30
2023-02-18T20:58:52.186Z,8.40
2023-02-18T21:01:21.459Z,8.20
2023-02-18T21:03:50.213Z,8.10
2023-02-18T21:06:22.603Z,10.00
2023-02-18T21:08:54.206Z,8.00
2023-02-18T21:11:27.536Z,7.40
2023-02-18T21:13:57.449Z,8.10
2023-02-18T21:16:29.407Z,12.50
2023-02-18T21:18:59.461Z,9.70
2023-02-18T21:21:28.206Z,12.20
2023-02-18T21:23:56.900Z,12.50
2023-02-18T21:26:27.707Z,12.10
2023-02-18T21:29:02.486Z,11.30
2023-02-18T21:31:43.648Z,11.80
2023-02-18T21:34:15.313Z,15.30
2023-02-18T21:36:43.992Z,14.40
2023-02-18T21:39:12.521Z,17.50
2023-02-18T21:41:41.556Z,17.60
2023-02-18T21:44:11.046Z,18.70
2023-02-18T21:46:40.021Z,17.00
2023-02-18T21:49:12.662Z,19.10
2023-02-18T21:52:08.794Z,19.40
2023-02-18T21:54:44.822Z,15.70
2023-02-18T21:57:16.155Z,15.30
2023-02-18T21:59:47.916Z,15.90
2023-02-18T22:02:32.610Z,13.40
2023-02-18T22:05:03.008Z,16.00
2023-02-18T22:07:31.562Z,13.20
2023-02-18T22:10:00.408Z,12.60
2023-02-18T22:12:29.045Z,14.50
2023-02-18T22:14:57.601Z,16.00
2023-02-18T22:17:26.406Z,16.60
2023-02-18T22:19:55.201Z,13.30
2023-02-18T22:22:23.840Z,13.60
2023-02-18T22:24:52.596Z,13.60
2023-02-18T22:27:21.586Z,12.00
2023-02-18T22:29:50.369Z,11.00
2023-02-18T22:32:19.922Z,12.20
2023-02-18T22:37:17.041Z,11.00
2023-02-18T22:39:45.724Z,12.60
2023-02-18T22:42:14.408Z,9.30
2023-02-18T22:44:43.207Z,8.60
2023-02-18T22:47:11.910Z,9.40
2023-02-18T22:49:40.773Z,10.80
2023-02-18T22:52:09.337Z,10.40
2023-02-18T22:54:37.920Z,9.90
2023-02-18T22:57:06.827Z,7.10
2023-02-18T22:59:35.510Z,9.00
2023-02-18T23:02:04.198Z,7.60
2023-02-18T23:04:33.016Z,8.40
2023-02-18T23:07:01.751Z,7.20
2023-02-18T23:09:30.777Z,7.80
2023-02-18T23:11:59.661Z,8.10
2023-02-18T23:14:29.990Z,7.30
2023-02-18T23:17:14.499Z,8.10
2023-02-18T23:19:54.286Z,7.50
2023-02-18T23:22:33.823Z,8.10
2023-02-18T23:27:32.452Z,8.50
2023-02-18T23:30:01.236Z,9.90
2023-02-18T23:32:30.925Z,10.20
2023-02-18T23:35:00.121Z,7.50
2023-02-18T23:37:47.447Z,8.50
2023-02-18T23:40:17.085Z,7.00
2023-02-18T23:45:14.304Z,8.00
2023-02-18T23:47:42.942Z,7.70
2023-02-18T23:50:16.327Z,8.00
2023-02-18T23:52:47.650Z,7.40
2023-02-18T23:55:17.157Z,8.10
2023-02-18T23:57:45.702Z,7.40
